sensor_id;sensor_type;location;lat;lon;timestamp;P1;durP1;ratioP1;P2;durP2;ratioP2
6344;SDS011;3205;42.666;23.264;2023-07-31T00:01:17;4.50;;;3.78;;
6344;SDS011;3205;42.666;23.264;2023-07-31T00:03:43;4.10;;;3.80;;
6344;SDS011;3205;42.666;23.264;2023-07-31T00:06:09;6.45;;;3.90;;
6344;SDS011;3205;42.666;23.264;2023-07-31T00:08:36;7.20;;;3.65;;
6344;SDS011;3205;42.666;23.264;2023-07-31T00:11:02;4.78;;;3.58;;
6344;SDS011;3205;42.666;23.264;2023-07-31T00:13:28;3.63;;;3.28;;
6344;SDS011;3205;42.666;23.264;2023-07-31T00:15:54;3.60;;;3.30;;
6344;SDS011;3205;42.666;23.264;2023-07-31T00:18:21;4.90;;;3.80;;
6344;SDS011;3205;42.666;23.264;2023-07-31T00:20:47;4.13;;;3.67;;
6344;SDS011;3205;42.666;23.264;2023-07-31T00:23:13;4.10;;;3.70;;
6344;SDS011;3205;42.666;23.264;2023-07-31T00:25:40;4.35;;;4.00;;
6344;SDS011;3205;42.666;23.264;2023-07-31T00:28:06;3.75;;;3.53;;
6344;SDS011;3205;42.666;23.264;2023-07-31T00:30:32;4.60;;;4.30;;
6344;SDS011;3205;42.666;23.264;2023-07-31T00:32:58;4.20;;;3.90;;
6344;SDS011;3205;42.666;23.264;2023-07-31T00:35:25;5.07;;;4.35;;
6344;SDS011;3205;42.666;23.264;2023-07-31T00:37:51;4.72;;;4.13;;
6344;SDS011;3205;42.666;23.264;2023-07-31T00:40:17;5.28;;;4.30;;
6344;SDS011;3205;42.666;23.264;2023-07-31T00:42:44;4.82;;;4.40;;
6344;SDS011;3205;42.666;23.264;2023-07-31T00:45:10;4.90;;;4.25;;
6344;SDS011;3205;42.666;23.264;2023-07-31T00:47:36;4.78;;;4.45;;
6344;SDS011;3205;42.666;23.264;2023-07-31T00:50:02;5.10;;;4.70;;
6344;SDS011;3205;42.666;23.264;2023-07-31T00:52:29;5.60;;;5.10;;
6344;SDS011;3205;42.666;23.264;2023-07-31T00:54:55;5.88;;;5.38;;
6344;SDS011;3205;42.666;23.264;2023-07-31T00:57:21;6.55;;;5.95;;
6344;SDS011;3205;42.666;23.264;2023-07-31T00:59:48;6.22;;;5.70;;
6344;SDS011;3205;42.666;23.264;2023-07-31T01:02:14;7.28;;;6.20;;
6344;SDS011;3205;42.666;23.264;2023-07-31T01:04:41;6.20;;;5.75;;
6344;SDS011;3205;42.666;23.264;2023-07-31T01:07:09;6.93;;;6.40;;
6344;SDS011;3205;42.666;23.264;2023-07-31T01:09:40;8.25;;;7.53;;
6344;SDS011;3205;42.666;23.264;2023-07-31T01:12:12;9.25;;;8.35;;
6344;SDS011;3205;42.666;23.264;2023-07-31T01:14:40;8.68;;;7.90;;
6344;SDS011;3205;42.666;23.264;2023-07-31T01:17:16;10.93;;;9.95;;
6344;SDS011;3205;42.666;23.264;2023-07-31T01:19:42;11.07;;;9.98;;
6344;SDS011;3205;42.666;23.264;2023-07-31T01:22:16;10.93;;;9.82;;
6344;SDS011;3205;42.666;23.264;2023-07-31T01:24:59;12.98;;;11.73;;
6344;SDS011;3205;42.666;23.264;2023-07-31T01:27:38;12.77;;;11.48;;
6344;SDS011;3205;42.666;23.264;2023-07-31T01:30:20;14.55;;;13.15;;
6344;SDS011;3205;42.666;23.264;2023-07-31T01:32:50;13.77;;;12.43;;
6344;SDS011;3205;42.666;23.264;2023-07-31T01:35:20;14.27;;;12.88;;
6344;SDS011;3205;42.666;23.264;2023-07-31T01:37:46;16.65;;;14.27;;
6344;SDS011;3205;42.666;23.264;2023-07-31T01:40:12;19.10;;;16.23;;
6344;SDS011;3205;42.666;23.264;2023-07-31T01:42:39;20.08;;;16.70;;
6344;SDS011;3205;42.666;23.264;2023-07-31T01:45:05;18.90;;;17.15;;
6344;SDS011;3205;42.666;23.264;2023-07-31T01:47:32;20.00;;;17.90;;
6344;SDS011;3205;42.666;23.264;2023-07-31T01:49:58;20.73;;;18.15;;
6344;SDS011;3205;42.666;23.264;2023-07-31T01:52:24;20.83;;;18.70;;
6344;SDS011;3205;42.666;23.264;2023-07-31T01:54:50;21.35;;;19.25;;
6344;SDS011;3205;42.666;23.264;2023-07-31T01:57:17;28.13;;;21.33;;
6344;SDS011;3205;42.666;23.264;2023-07-31T01:59:44;24.85;;;20.75;;
6344;SDS011;3205;42.666;23.264;2023-07-31T02:02:10;22.40;;;20.00;;
6344;SDS011;3205;42.666;23.264;2023-07-31T02:04:36;22.33;;;19.92;;
6344;SDS011;3205;42.666;23.264;2023-07-31T02:07:03;22.30;;;19.98;;
6344;SDS011;3205;42.666;23.264;2023-07-31T02:09:30;22.60;;;20.20;;
6344;SDS011;3205;42.666;23.264;2023-07-31T02:11:56;24.35;;;21.77;;
6344;SDS011;3205;42.666;23.264;2023-07-31T02:14:22;25.15;;;20.30;;
6344;SDS011;3205;42.666;23.264;2023-07-31T02:16:50;23.95;;;21.45;;
6344;SDS011;3205;42.666;23.264;2023-07-31T02:19:17;25.13;;;22.42;;
6344;SDS011;3205;42.666;23.264;2023-07-31T02:21:43;23.90;;;21.48;;
6344;SDS011;3205;42.666;23.264;2023-07-31T02:24:09;23.05;;;20.77;;
6344;SDS011;3205;42.666;23.264;2023-07-31T02:26:35;23.45;;;21.05;;
6344;SDS011;3205;42.666;23.264;2023-07-31T02:29:01;23.70;;;21.00;;
6344;SDS011;3205;42.666;23.264;2023-07-31T02:31:27;23.73;;;21.38;;
6344;SDS011;3205;42.666;23.264;2023-07-31T02:33:54;22.50;;;19.98;;
6344;SDS011;3205;42.666;23.264;2023-07-31T02:36:20;23.15;;;20.75;;
6344;SDS011;3205;42.666;23.264;2023-07-31T02:38:46;22.98;;;20.42;;
6344;SDS011;3205;42.666;23.264;2023-07-31T02:41:13;23.23;;;20.88;;
6344;SDS011;3205;42.666;23.264;2023-07-31T02:43:39;31.90;;;21.27;;
6344;SDS011;3205;42.666;23.264;2023-07-31T02:46:05;23.17;;;20.48;;
6344;SDS011;3205;42.666;23.264;2023-07-31T02:48:31;24.00;;;21.02;;
6344;SDS011;3205;42.666;23.264;2023-07-31T02:50:58;24.58;;;21.92;;
6344;SDS011;3205;42.666;23.264;2023-07-31T02:53:24;24.27;;;21.02;;
6344;SDS011;3205;42.666;23.264;2023-07-31T02:55:50;22.75;;;20.33;;
6344;SDS011;3205;42.666;23.264;2023-07-31T02:58:17;30.33;;;22.02;;
6344;SDS011;3205;42.666;23.264;2023-07-31T03:00:43;24.83;;;22.15;;
6344;SDS011;3205;42.666;23.264;2023-07-31T03:03:09;24.95;;;21.15;;
6344;SDS011;3205;42.666;23.264;2023-07-31T03:05:35;22.73;;;20.50;;
6344;SDS011;3205;42.666;23.264;2023-07-31T03:08:02;24.45;;;21.95;;
6344;SDS011;3205;42.666;23.264;2023-07-31T03:10:29;23.98;;;21.45;;
6344;SDS011;3205;42.666;23.264;2023-07-31T03:12:55;23.08;;;20.58;;
6344;SDS011;3205;42.666;23.264;2023-07-31T03:15:21;25.13;;;21.25;;
6344;SDS011;3205;42.666;23.264;2023-07-31T03:17:47;24.17;;;21.60;;
6344;SDS011;3205;42.666;23.264;2023-07-31T03:20:13;23.70;;;20.85;;
6344;SDS011;3205;42.666;23.264;2023-07-31T03:22:39;25.17;;;22.58;;
6344;SDS011;3205;42.666;23.264;2023-07-31T03:25:07;27.65;;;21.98;;
6344;SDS011;3205;42.666;23.264;2023-07-31T03:27:35;27.40;;;21.35;;
6344;SDS011;3205;42.666;23.264;2023-07-31T03:30:02;26.77;;;22.73;;
6344;SDS011;3205;42.666;23.264;2023-07-31T03:32:28;25.17;;;22.48;;
6344;SDS011;3205;42.666;23.264;2023-07-31T03:34:54;23.45;;;20.95;;
6344;SDS011;3205;42.666;23.264;2023-07-31T03:37:20;22.80;;;20.33;;
6344;SDS011;3205;42.666;23.264;2023-07-31T03:39:46;24.40;;;21.52;;
6344;SDS011;3205;42.666;23.264;2023-07-31T03:42:13;23.63;;;21.23;;
6344;SDS011;3205;42.666;23.264;2023-07-31T03:44:39;24.42;;;21.75;;
6344;SDS011;3205;42.666;23.264;2023-07-31T03:47:06;25.48;;;22.08;;
6344;SDS011;3205;42.666;23.264;2023-07-31T03:49:32;31.30;;;23.45;;
6344;SDS011;3205;42.666;23.264;2023-07-31T03:51:59;29.00;;;23.55;;
6344;SDS011;3205;42.666;23.264;2023-07-31T03:54:25;24.73;;;21.77;;
6344;SDS011;3205;42.666;23.264;2023-07-31T03:56:51;29.63;;;23.63;;
6344;SDS011;3205;42.666;23.264;2023-07-31T03:59:18;26.88;;;23.15;;
6344;SDS011;3205;42.666;23.264;2023-07-31T04:01:44;27.25;;;23.45;;
6344;SDS011;3205;42.666;23.264;2023-07-31T04:04:10;29.92;;;23.55;;
6344;SDS011;3205;42.666;23.264;2023-07-31T04:06:36;26.67;;;23.27;;
6344;SDS011;3205;42.666;23.264;2023-07-31T04:09:02;31.08;;;24.15;;
6344;SDS011;3205;42.666;23.264;2023-07-31T04:11:29;26.63;;;23.00;;
6344;SDS011;3205;42.666;23.264;2023-07-31T04:13:55;27.73;;;23.83;;
6344;SDS011;3205;42.666;23.264;2023-07-31T04:16:21;28.95;;;24.00;;
6344;SDS011;3205;42.666;23.264;2023-07-31T04:18:48;27.30;;;23.45;;
6344;SDS011;3205;42.666;23.264;2023-07-31T04:21:16;27.50;;;23.77;;
6344;SDS011;3205;42.666;23.264;2023-07-31T04:23:42;39.85;;;23.83;;
6344;SDS011;3205;42.666;23.264;2023-07-31T04:26:08;29.25;;;24.20;;
6344;SDS011;3205;42.666;23.264;2023-07-31T04:28:35;31.42;;;24.38;;
6344;SDS011;3205;42.666;23.264;2023-07-31T04:31:01;28.92;;;23.83;;
6344;SDS011;3205;42.666;23.264;2023-07-31T04:33:27;27.35;;;24.20;;
6344;SDS011;3205;42.666;23.264;2023-07-31T04:35:54;26.90;;;22.15;;
6344;SDS011;3205;42.666;23.264;2023-07-31T04:38:20;27.52;;;21.17;;
6344;SDS011;3205;42.666;23.264;2023-07-31T04:40:46;27.20;;;22.95;;
6344;SDS011;3205;42.666;23.264;2023-07-31T04:43:13;24.35;;;21.67;;
6344;SDS011;3205;42.666;23.264;2023-07-31T04:45:41;26.90;;;22.35;;
6344;SDS011;3205;42.666;23.264;2023-07-31T04:48:10;29.52;;;22.27;;
6344;SDS011;3205;42.666;23.264;2023-07-31T04:50:37;27.85;;;22.38;;
6344;SDS011;3205;42.666;23.264;2023-07-31T04:53:03;22.40;;;20.00;;
6344;SDS011;3205;42.666;23.264;2023-07-31T04:55:29;31.75;;;21.25;;
6344;SDS011;3205;42.666;23.264;2023-07-31T04:57:55;28.30;;;20.83;;
6344;SDS011;3205;42.666;23.264;2023-07-31T05:00:21;23.10;;;20.67;;
6344;SDS011;3205;42.666;23.264;2023-07-31T05:02:48;22.67;;;19.25;;
6344;SDS011;3205;42.666;23.264;2023-07-31T05:05:14;28.25;;;18.92;;
6344;SDS011;3205;42.666;23.264;2023-07-31T05:07:40;21.20;;;17.33;;
6344;SDS011;3205;42.666;23.264;2023-07-31T05:10:07;20.00;;;16.90;;
6344;SDS011;3205;42.666;23.264;2023-07-31T05:12:33;20.95;;;15.95;;
6344;SDS011;3205;42.666;23.264;2023-07-31T05:14:59;17.92;;;16.27;;
6344;SDS011;3205;42.666;23.264;2023-07-31T05:17:26;25.90;;;17.48;;
6344;SDS011;3205;42.666;23.264;2023-07-31T05:19:52;22.50;;;16.35;;
6344;SDS011;3205;42.666;23.264;2023-07-31T05:22:18;16.73;;;14.73;;
6344;SDS011;3205;42.666;23.264;2023-07-31T05:24:47;20.80;;;15.98;;
6344;SDS011;3205;42.666;23.264;2023-07-31T05:27:13;16.48;;;14.57;;
6344;SDS011;3205;42.666;23.264;2023-07-31T05:29:43;17.52;;;13.98;;
6344;SDS011;3205;42.666;23.264;2023-07-31T05:32:09;17.67;;;14.55;;
6344;SDS011;3205;42.666;23.264;2023-07-31T05:34:35;15.18;;;13.13;;
6344;SDS011;3205;42.666;23.264;2023-07-31T05:37:01;15.95;;;13.05;;
6344;SDS011;3205;42.666;23.264;2023-07-31T05:39:28;19.42;;;11.27;;
6344;SDS011;3205;42.666;23.264;2023-07-31T05:41:54;11.27;;;9.30;;
6344;SDS011;3205;42.666;23.264;2023-07-31T05:44:21;15.32;;;9.98;;
6344;SDS011;3205;42.666;23.264;2023-07-31T05:46:47;9.27;;;8.07;;
6344;SDS011;3205;42.666;23.264;2023-07-31T05:49:13;9.93;;;8.10;;
6344;SDS011;3205;42.666;23.264;2023-07-31T05:51:39;9.48;;;7.40;;
6344;SDS011;3205;42.666;23.264;2023-07-31T05:54:05;10.15;;;7.03;;
6344;SDS011;3205;42.666;23.264;2023-07-31T05:56:31;9.10;;;6.88;;
6344;SDS011;3205;42.666;23.264;2023-07-31T05:58:59;7.07;;;6.45;;
6344;SDS011;3205;42.666;23.264;2023-07-31T06:01:25;10.13;;;7.43;;
6344;SDS011;3205;42.666;23.264;2023-07-31T06:03:52;7.05;;;6.45;;
6344;SDS011;3205;42.666;23.264;2023-07-31T06:06:18;8.20;;;6.97;;
6344;SDS011;3205;42.666;23.264;2023-07-31T06:08:44;11.93;;;10.93;;
6344;SDS011;3205;42.666;23.264;2023-07-31T06:11:10;43.95;;;39.63;;
6344;SDS011;3205;42.666;23.264;2023-07-31T06:13:36;5.95;;;5.53;;
6344;SDS011;3205;42.666;23.264;2023-07-31T06:16:03;103.68;;;86.78;;
6344;SDS011;3205;42.666;23.264;2023-07-31T06:18:31;74.55;;;62.95;;
6344;SDS011;3205;42.666;23.264;2023-07-31T06:20:57;10.90;;;6.00;;
6344;SDS011;3205;42.666;23.264;2023-07-31T06:23:26;9.20;;;4.90;;
6344;SDS011;3205;42.666;23.264;2023-07-31T06:25:52;5.65;;;4.25;;
6344;SDS011;3205;42.666;23.264;2023-07-31T06:28:18;8.90;;;4.68;;
6344;SDS011;3205;42.666;23.264;2023-07-31T06:30:44;7.72;;;5.25;;
6344;SDS011;3205;42.666;23.264;2023-07-31T06:33:11;5.13;;;4.75;;
6344;SDS011;3205;42.666;23.264;2023-07-31T06:35:37;15.75;;;6.38;;
6344;SDS011;3205;42.666;23.264;2023-07-31T06:38:03;9.13;;;4.30;;
6344;SDS011;3205;42.666;23.264;2023-07-31T06:40:29;6.53;;;5.32;;
6344;SDS011;3205;42.666;23.264;2023-07-31T06:42:55;5.93;;;4.35;;
6344;SDS011;3205;42.666;23.264;2023-07-31T06:45:22;4.38;;;4.07;;
6344;SDS011;3205;42.666;23.264;2023-07-31T06:47:48;5.13;;;4.40;;
6344;SDS011;3205;42.666;23.264;2023-07-31T06:50:15;9.07;;;4.45;;
6344;SDS011;3205;42.666;23.264;2023-07-31T06:52:41;29.45;;;22.48;;
6344;SDS011;3205;42.666;23.264;2023-07-31T06:55:15;10.13;;;9.07;;
6344;SDS011;3205;42.666;23.264;2023-07-31T06:57:43;4.18;;;3.88;;
6344;SDS011;3205;42.666;23.264;2023-07-31T07:00:09;35.00;;;31.38;;
6344;SDS011;3205;42.666;23.264;2023-07-31T07:02:36;7.10;;;3.78;;
6344;SDS011;3205;42.666;23.264;2023-07-31T07:05:03;4.38;;;3.05;;
6344;SDS011;3205;42.666;23.264;2023-07-31T07:07:30;4.38;;;2.70;;
6344;SDS011;3205;42.666;23.264;2023-07-31T07:09:56;4.15;;;3.20;;
6344;SDS011;3205;42.666;23.264;2023-07-31T07:12:22;3.30;;;3.00;;
6344;SDS011;3205;42.666;23.264;2023-07-31T07:14:48;3.63;;;2.85;;
6344;SDS011;3205;42.666;23.264;2023-07-31T07:17:14;2.75;;;2.50;;
6344;SDS011;3205;42.666;23.264;2023-07-31T07:19:41;3.60;;;3.22;;
6344;SDS011;3205;42.666;23.264;2023-07-31T07:22:07;3.28;;;2.70;;
6344;SDS011;3205;42.666;23.264;2023-07-31T07:24:34;3.17;;;2.88;;
6344;SDS011;3205;42.666;23.264;2023-07-31T07:27:00;4.07;;;2.83;;
6344;SDS011;3205;42.666;23.264;2023-07-31T07:29:26;2.75;;;2.45;;
6344;SDS011;3205;42.666;23.264;2023-07-31T07:31:52;4.55;;;3.08;;
6344;SDS011;3205;42.666;23.264;2023-07-31T07:34:18;7.30;;;2.97;;
6344;SDS011;3205;42.666;23.264;2023-07-31T07:36:44;4.35;;;3.10;;
6344;SDS011;3205;42.666;23.264;2023-07-31T07:39:10;8.25;;;2.83;;
6344;SDS011;3205;42.666;23.264;2023-07-31T07:41:37;3.38;;;3.17;;
6344;SDS011;3205;42.666;23.264;2023-07-31T07:44:04;3.40;;;2.65;;
6344;SDS011;3205;42.666;23.264;2023-07-31T07:46:30;3.88;;;2.65;;
6344;SDS011;3205;42.666;23.264;2023-07-31T07:48:56;3.65;;;2.80;;
6344;SDS011;3205;42.666;23.264;2023-07-31T07:51:22;2.88;;;2.67;;
6344;SDS011;3205;42.666;23.264;2023-07-31T07:53:48;2.60;;;2.50;;
6344;SDS011;3205;42.666;23.264;2023-07-31T07:56:14;5.20;;;2.97;;
6344;SDS011;3205;42.666;23.264;2023-07-31T07:58:42;3.47;;;3.00;;
6344;SDS011;3205;42.666;23.264;2023-07-31T08:01:08;5.88;;;2.60;;
6344;SDS011;3205;42.666;23.264;2023-07-31T08:03:34;4.13;;;2.60;;
6344;SDS011;3205;42.666;23.264;2023-07-31T08:06:00;14.98;;;3.47;;
6344;SDS011;3205;42.666;23.264;2023-07-31T08:08:27;4.28;;;3.25;;
6344;SDS011;3205;42.666;23.264;2023-07-31T08:10:54;46.95;;;27.67;;
6344;SDS011;3205;42.666;23.264;2023-07-31T08:13:20;41.55;;;35.92;;
6344;SDS011;3205;42.666;23.264;2023-07-31T08:15:46;8.18;;;7.47;;
6344;SDS011;3205;42.666;23.264;2023-07-31T08:18:13;15.10;;;13.75;;
6344;SDS011;3205;42.666;23.264;2023-07-31T08:20:39;22.65;;;20.42;;
6344;SDS011;3205;42.666;23.264;2023-07-31T08:23:05;2.22;;;2.13;;
6344;SDS011;3205;42.666;23.264;2023-07-31T08:25:33;4.57;;;2.40;;
6344;SDS011;3205;42.666;23.264;2023-07-31T08:28:00;2.50;;;2.40;;
6344;SDS011;3205;42.666;23.264;2023-07-31T08:30:26;3.40;;;2.53;;
6344;SDS011;3205;42.666;23.264;2023-07-31T08:32:53;3.05;;;2.72;;
6344;SDS011;3205;42.666;23.264;2023-07-31T08:35:19;2.70;;;2.50;;
6344;SDS011;3205;42.666;23.264;2023-07-31T08:37:45;4.82;;;2.95;;
6344;SDS011;3205;42.666;23.264;2023-07-31T08:40:11;6.03;;;2.95;;
6344;SDS011;3205;42.666;23.264;2023-07-31T08:42:43;4.05;;;2.78;;
6344;SDS011;3205;42.666;23.264;2023-07-31T08:45:11;4.95;;;2.80;;
6344;SDS011;3205;42.666;23.264;2023-07-31T08:47:41;7.88;;;2.80;;
6344;SDS011;3205;42.666;23.264;2023-07-31T08:50:11;2.92;;;2.72;;
6344;SDS011;3205;42.666;23.264;2023-07-31T08:52:38;3.30;;;2.65;;
6344;SDS011;3205;42.666;23.264;2023-07-31T08:55:04;2.65;;;2.30;;
6344;SDS011;3205;42.666;23.264;2023-07-31T08:57:31;6.80;;;2.53;;
6344;SDS011;3205;42.666;23.264;2023-07-31T08:59:59;4.25;;;2.95;;
6344;SDS011;3205;42.666;23.264;2023-07-31T09:02:26;19.55;;;14.85;;
6344;SDS011;3205;42.666;23.264;2023-07-31T09:05:00;36.45;;;33.17;;
6344;SDS011;3205;42.666;23.264;2023-07-31T09:07:28;8.80;;;2.92;;
6344;SDS011;3205;42.666;23.264;2023-07-31T09:09:57;11.65;;;10.45;;
6344;SDS011;3205;42.666;23.264;2023-07-31T09:12:23;29.45;;;26.88;;
6344;SDS011;3205;42.666;23.264;2023-07-31T09:14:51;8.88;;;3.42;;
6344;SDS011;3205;42.666;23.264;2023-07-31T09:17:28;2.45;;;2.35;;
6344;SDS011;3205;42.666;23.264;2023-07-31T09:19:55;3.38;;;2.40;;
6344;SDS011;3205;42.666;23.264;2023-07-31T09:22:25;2.90;;;2.70;;
6344;SDS011;3205;42.666;23.264;2023-07-31T09:25:03;4.63;;;3.10;;
6344;SDS011;3205;42.666;23.264;2023-07-31T09:27:45;4.35;;;2.80;;
6344;SDS011;3205;42.666;23.264;2023-07-31T09:30:12;16.48;;;14.88;;
6344;SDS011;3205;42.666;23.264;2023-07-31T09:32:38;3.50;;;3.20;;
6344;SDS011;3205;42.666;23.264;2023-07-31T09:35:12;4.90;;;2.85;;
6344;SDS011;3205;42.666;23.264;2023-07-31T09:37:40;2.90;;;2.67;;
6344;SDS011;3205;42.666;23.264;2023-07-31T09:40:07;9.00;;;8.20;;
6344;SDS011;3205;42.666;23.264;2023-07-31T09:42:33;7.63;;;6.93;;
6344;SDS011;3205;42.666;23.264;2023-07-31T09:45:06;36.80;;;32.88;;
6344;SDS011;3205;42.666;23.264;2023-07-31T09:47:33;7.40;;;3.30;;
6344;SDS011;3205;42.666;23.264;2023-07-31T09:49:59;5.47;;;4.90;;
6344;SDS011;3205;42.666;23.264;2023-07-31T09:52:26;3.75;;;2.85;;
6344;SDS011;3205;42.666;23.264;2023-07-31T09:54:53;2.92;;;2.72;;
6344;SDS011;3205;42.666;23.264;2023-07-31T09:57:19;3.15;;;2.75;;
6344;SDS011;3205;42.666;23.264;2023-07-31T09:59:48;2.50;;;2.30;;
6344;SDS011;3205;42.666;23.264;2023-07-31T10:02:15;6.28;;;2.88;;
6344;SDS011;3205;42.666;23.264;2023-07-31T10:04:46;2.60;;;2.40;;
6344;SDS011;3205;42.666;23.264;2023-07-31T10:07:14;2.83;;;2.50;;
6344;SDS011;3205;42.666;23.264;2023-07-31T10:09:43;3.17;;;2.42;;
6344;SDS011;3205;42.666;23.264;2023-07-31T10:12:12;9.50;;;2.45;;
6344;SDS011;3205;42.666;23.264;2023-07-31T10:14:42;9.02;;;2.63;;
6344;SDS011;3205;42.666;23.264;2023-07-31T10:17:09;6.38;;;2.42;;
6344;SDS011;3205;42.666;23.264;2023-07-31T10:19:36;2.65;;;2.17;;
6344;SDS011;3205;42.666;23.264;2023-07-31T10:22:03;7.28;;;2.88;;
6344;SDS011;3205;42.666;23.264;2023-07-31T10:24:30;3.53;;;2.35;;
6344;SDS011;3205;42.666;23.264;2023-07-31T10:26:57;7.43;;;2.38;;
6344;SDS011;3205;42.666;23.264;2023-07-31T10:29:26;6.10;;;2.22;;
6344;SDS011;3205;42.666;23.264;2023-07-31T10:31:54;4.53;;;2.33;;
6344;SDS011;3205;42.666;23.264;2023-07-31T10:34:23;3.63;;;2.45;;
6344;SDS011;3205;42.666;23.264;2023-07-31T10:36:49;2.03;;;1.92;;
6344;SDS011;3205;42.666;23.264;2023-07-31T10:39:33;2.80;;;2.60;;
6344;SDS011;3205;42.666;23.264;2023-07-31T10:42:09;2.97;;;2.08;;
6344;SDS011;3205;42.666;23.264;2023-07-31T10:44:36;2.33;;;2.22;;
6344;SDS011;3205;42.666;23.264;2023-07-31T10:47:02;2.00;;;1.90;;
6344;SDS011;3205;42.666;23.264;2023-07-31T10:49:28;3.15;;;2.10;;
6344;SDS011;3205;42.666;23.264;2023-07-31T10:51:56;4.10;;;2.20;;
6344;SDS011;3205;42.666;23.264;2023-07-31T10:54:23;1.98;;;1.88;;
6344;SDS011;3205;42.666;23.264;2023-07-31T10:56:50;2.08;;;1.90;;
6344;SDS011;3205;42.666;23.264;2023-07-31T10:59:17;2.40;;;1.98;;
6344;SDS011;3205;42.666;23.264;2023-07-31T11:01:52;2.30;;;2.10;;
6344;SDS011;3205;42.666;23.264;2023-07-31T11:04:22;2.38;;;1.92;;
6344;SDS011;3205;42.666;23.264;2023-07-31T11:06:59;10.13;;;2.15;;
6344;SDS011;3205;42.666;23.264;2023-07-31T11:09:30;4.53;;;2.20;;
6344;SDS011;3205;42.666;23.264;2023-07-31T11:11:57;3.60;;;1.90;;
6344;SDS011;3205;42.666;23.264;2023-07-31T11:14:24;2.72;;;1.95;;
6344;SDS011;3205;42.666;23.264;2023-07-31T11:16:50;2.30;;;1.95;;
6344;SDS011;3205;42.666;23.264;2023-07-31T11:19:21;2.22;;;2.00;;
6344;SDS011;3205;42.666;23.264;2023-07-31T11:21:48;2.17;;;2.08;;
6344;SDS011;3205;42.666;23.264;2023-07-31T11:24:14;5.93;;;2.50;;
6344;SDS011;3205;42.666;23.264;2023-07-31T11:26:47;4.32;;;2.03;;
6344;SDS011;3205;42.666;23.264;2023-07-31T11:29:14;4.32;;;2.30;;
6344;SDS011;3205;42.666;23.264;2023-07-31T11:31:41;2.22;;;2.03;;
6344;SDS011;3205;42.666;23.264;2023-07-31T11:34:08;4.05;;;2.08;;
6344;SDS011;3205;42.666;23.264;2023-07-31T11:36:35;3.55;;;2.30;;
6344;SDS011;3205;42.666;23.264;2023-07-31T11:39:04;3.55;;;2.00;;
6344;SDS011;3205;42.666;23.264;2023-07-31T11:41:30;2.30;;;2.20;;
6344;SDS011;3205;42.666;23.264;2023-07-31T11:43:59;3.35;;;2.58;;
6344;SDS011;3205;42.666;23.264;2023-07-31T11:46:25;3.55;;;3.15;;
6344;SDS011;3205;42.666;23.264;2023-07-31T11:48:51;3.20;;;2.60;;
6344;SDS011;3205;42.666;23.264;2023-07-31T11:51:18;4.93;;;2.92;;
6344;SDS011;3205;42.666;23.264;2023-07-31T11:53:47;2.70;;;2.50;;
6344;SDS011;3205;42.666;23.264;2023-07-31T11:56:17;2.88;;;2.67;;
6344;SDS011;3205;42.666;23.264;2023-07-31T11:58:45;3.25;;;2.72;;
6344;SDS011;3205;42.666;23.264;2023-07-31T12:01:13;4.13;;;2.83;;
6344;SDS011;3205;42.666;23.264;2023-07-31T12:03:41;2.97;;;2.78;;
6344;SDS011;3205;42.666;23.264;2023-07-31T12:06:08;6.75;;;3.97;;
6344;SDS011;3205;42.666;23.264;2023-07-31T12:08:34;3.85;;;3.40;;
6344;SDS011;3205;42.666;23.264;2023-07-31T12:11:02;4.95;;;3.50;;
6344;SDS011;3205;42.666;23.264;2023-07-31T12:13:30;4.15;;;3.75;;
6344;SDS011;3205;42.666;23.264;2023-07-31T12:15:58;5.32;;;4.30;;
6344;SDS011;3205;42.666;23.264;2023-07-31T12:18:26;8.80;;;4.80;;
6344;SDS011;3205;42.666;23.264;2023-07-31T12:20:54;5.82;;;5.25;;
6344;SDS011;3205;42.666;23.264;2023-07-31T12:23:21;5.72;;;5.32;;
6344;SDS011;3205;42.666;23.264;2023-07-31T12:26:00;6.32;;;5.43;;
6344;SDS011;3205;42.666;23.264;2023-07-31T12:28:26;6.20;;;5.68;;
6344;SDS011;3205;42.666;23.264;2023-07-31T12:30:56;9.77;;;6.72;;
6344;SDS011;3205;42.666;23.264;2023-07-31T12:33:23;14.93;;;8.65;;
6344;SDS011;3205;42.666;23.264;2023-07-31T12:35:49;6.90;;;6.30;;
6344;SDS011;3205;42.666;23.264;2023-07-31T12:38:17;5.50;;;5.10;;
6344;SDS011;3205;42.666;23.264;2023-07-31T12:40:43;6.72;;;6.13;;
6344;SDS011;3205;42.666;23.264;2023-07-31T12:43:10;12.02;;;5.60;;
6344;SDS011;3205;42.666;23.264;2023-07-31T12:45:36;5.15;;;4.75;;
6344;SDS011;3205;42.666;23.264;2023-07-31T12:48:02;5.30;;;4.78;;
6344;SDS011;3205;42.666;23.264;2023-07-31T12:50:29;5.95;;;5.00;;
6344;SDS011;3205;42.666;23.264;2023-07-31T12:52:55;6.45;;;5.90;;
6344;SDS011;3205;42.666;23.264;2023-07-31T12:55:24;5.90;;;5.50;;
6344;SDS011;3205;42.666;23.264;2023-07-31T12:57:50;6.78;;;6.18;;
6344;SDS011;3205;42.666;23.264;2023-07-31T13:00:17;9.75;;;5.93;;
6344;SDS011;3205;42.666;23.264;2023-07-31T13:02:43;7.15;;;5.82;;
6344;SDS011;3205;42.666;23.264;2023-07-31T13:05:10;6.22;;;5.72;;
6344;SDS011;3205;42.666;23.264;2023-07-31T13:07:36;17.20;;;14.63;;
6344;SDS011;3205;42.666;23.264;2023-07-31T13:10:02;37.65;;;33.28;;
6344;SDS011;3205;42.666;23.264;2023-07-31T13:12:28;7.13;;;6.53;;
6344;SDS011;3205;42.666;23.264;2023-07-31T13:14:54;10.68;;;9.70;;
6344;SDS011;3205;42.666;23.264;2023-07-31T13:17:21;7.88;;;5.82;;
6344;SDS011;3205;42.666;23.264;2023-07-31T13:19:47;5.65;;;4.93;;
6344;SDS011;3205;42.666;23.264;2023-07-31T13:22:13;9.65;;;5.78;;
6344;SDS011;3205;42.666;23.264;2023-07-31T13:24:39;5.45;;;5.05;;
6344;SDS011;3205;42.666;23.264;2023-07-31T13:27:06;48.25;;;38.67;;
6344;SDS011;3205;42.666;23.264;2023-07-31T13:29:32;10.00;;;9.10;;
6344;SDS011;3205;42.666;23.264;2023-07-31T13:31:58;4.97;;;4.50;;
6344;SDS011;3205;42.666;23.264;2023-07-31T13:34:26;4.82;;;4.43;;
6344;SDS011;3205;42.666;23.264;2023-07-31T13:36:53;4.93;;;4.55;;
6344;SDS011;3205;42.666;23.264;2023-07-31T13:39:20;4.70;;;4.30;;
6344;SDS011;3205;42.666;23.264;2023-07-31T13:41:46;4.60;;;4.30;;
6344;SDS011;3205;42.666;23.264;2023-07-31T13:44:12;6.70;;;4.40;;
6344;SDS011;3205;42.666;23.264;2023-07-31T13:46:38;6.93;;;4.47;;
6344;SDS011;3205;42.666;23.264;2023-07-31T13:49:04;4.10;;;3.78;;
6344;SDS011;3205;42.666;23.264;2023-07-31T13:51:31;4.63;;;4.13;;
6344;SDS011;3205;42.666;23.264;2023-07-31T13:53:57;6.85;;;4.25;;
6344;SDS011;3205;42.666;23.264;2023-07-31T13:56:23;4.45;;;4.10;;
6344;SDS011;3205;42.666;23.264;2023-07-31T13:58:49;5.45;;;4.30;;
6344;SDS011;3205;42.666;23.264;2023-07-31T14:01:16;6.45;;;4.38;;
6344;SDS011;3205;42.666;23.264;2023-07-31T14:03:42;5.80;;;4.30;;
6344;SDS011;3205;42.666;23.264;2023-07-31T14:06:08;4.85;;;4.45;;
6344;SDS011;3205;42.666;23.264;2023-07-31T14:08:35;4.90;;;4.35;;
6344;SDS011;3205;42.666;23.264;2023-07-31T14:11:02;4.88;;;4.47;;
6344;SDS011;3205;42.666;23.264;2023-07-31T14:13:28;4.47;;;4.13;;
6344;SDS011;3205;42.666;23.264;2023-07-31T14:15:54;5.90;;;4.30;;
6344;SDS011;3205;42.666;23.264;2023-07-31T14:18:20;4.78;;;4.07;;
6344;SDS011;3205;42.666;23.264;2023-07-31T14:20:47;5.43;;;4.78;;
6344;SDS011;3205;42.666;23.264;2023-07-31T14:23:13;3.90;;;3.70;;
6344;SDS011;3205;42.666;23.264;2023-07-31T14:25:41;4.45;;;4.00;;
6344;SDS011;3205;42.666;23.264;2023-07-31T14:28:07;3.80;;;3.45;;
6344;SDS011;3205;42.666;23.264;2023-07-31T14:30:33;3.90;;;3.58;;
6344;SDS011;3205;42.666;23.264;2023-07-31T14:32:59;4.40;;;3.53;;
6344;SDS011;3205;42.666;23.264;2023-07-31T14:35:27;4.07;;;3.75;;
6344;SDS011;3205;42.666;23.264;2023-07-31T14:37:53;7.15;;;3.40;;
6344;SDS011;3205;42.666;23.264;2023-07-31T14:40:19;6.20;;;3.67;;
6344;SDS011;3205;42.666;23.264;2023-07-31T14:42:46;3.92;;;3.65;;
6344;SDS011;3205;42.666;23.264;2023-07-31T14:45:12;3.75;;;3.35;;
6344;SDS011;3205;42.666;23.264;2023-07-31T14:47:39;7.45;;;3.72;;
6344;SDS011;3205;42.666;23.264;2023-07-31T14:50:05;3.67;;;3.38;;